sensor_id;sensor_type;location;lat;lon;timestamp;pressure;altitude;pressure_sealevel;temperature;humidity
74594;BME280;63097;51.872;4.460;2023-07-13T00:01:23;101505.09;;;17.14;91.96
74594;BME280;63097;51.872;4.460;2023-07-13T00:03:48;101500.88;;;17.06;92.47
74594;BME280;63097;51.872;4.460;2023-07-13T00:06:14;101503.13;;;17.04;92.46
74594;BME280;63097;51.872;4.460;2023-07-13T00:08:39;101503.69;;;17.11;91.83
74594;BME280;63097;51.872;4.460;2023-07-13T00:11:04;101505.09;;;17.14;92.35
74594;BME280;63097;51.872;4.460;2023-07-13T00:13:30;101512.97;;;17.17;92.20
74594;BME280;63097;51.872;4.460;2023-07-13T00:15:58;101509.31;;;17.11;92.09
74594;BME280;63097;51.872;4.460;2023-07-13T00:18:23;101509.31;;;17.16;91.25
74594;BME280;63097;51.872;4.460;2023-07-13T00:20:49;101508.19;;;17.22;91.39
74594;BME280;63097;51.872;4.460;2023-07-13T00:23:15;101513.81;;;17.22;91.51
74594;BME280;63097;51.872;4.460;2023-07-13T00:25:40;101510.44;;;17.25;91.90
74594;BME280;63097;51.872;4.460;2023-07-13T00:28:06;101506.22;;;17.28;90.33
74594;BME280;63097;51.872;4.460;2023-07-13T00:30:31;101505.38;;;17.22;91.15
74594;BME280;63097;51.872;4.460;2023-07-13T00:32:56;101495.25;;;17.16;91.63
74594;BME280;63097;51.872;4.460;2023-07-13T00:35:22;101498.06;;;17.16;89.79
74594;BME280;63097;51.872;4.460;2023-07-13T00:37:47;101503.09;;;17.14;90.46
74594;BME280;63097;51.872;4.460;2023-07-13T00:40:13;101500.00;;;17.10;90.23
74594;BME280;63097;51.872;4.460;2023-07-13T00:42:39;101498.31;;;16.99;90.66
74594;BME280;63097;51.872;4.460;2023-07-13T00:47:36;101514.34;;;16.89;91.83
74594;BME280;63097;51.872;4.460;2023-07-13T00:50:04;101513.50;;;16.93;91.72
74594;BME280;63097;51.872;4.460;2023-07-13T00:52:31;101518.25;;;16.78;92.27
74594;BME280;63097;51.872;4.460;2023-07-13T00:54:57;101509.53;;;16.79;92.41
74594;BME280;63097;51.872;4.460;2023-07-13T00:57:23;101504.47;;;16.76;92.53
74594;BME280;63097;51.872;4.460;2023-07-13T00:59:55;101502.22;;;16.73;92.47
74594;BME280;63097;51.872;4.460;2023-07-13T01:02:22;101511.75;;;16.67;93.19
74594;BME280;63097;51.872;4.460;2023-07-13T01:04:49;101511.19;;;16.70;93.37
74594;BME280;63097;51.872;4.460;2023-07-13T01:07:14;101515.09;;;16.59;94.21
74594;BME280;63097;51.872;4.460;2023-07-13T01:09:39;101511.47;;;16.69;94.00
74594;BME280;63097;51.872;4.460;2023-07-13T01:12:05;101520.19;;;16.67;93.82
74594;BME280;63097;51.872;4.460;2023-07-13T01:14:31;101524.97;;;16.67;93.39
74594;BME280;63097;51.872;4.460;2023-07-13T01:16:56;101525.22;;;16.60;94.21
74594;BME280;63097;51.872;4.460;2023-07-13T01:19:43;101526.28;;;16.44;93.66
74594;BME280;63097;51.872;4.460;2023-07-13T01:22:11;101543.34;;;16.38;94.58
74594;BME280;63097;51.872;4.460;2023-07-13T01:24:38;101537.28;;;16.56;90.61
74594;BME280;63097;51.872;4.460;2023-07-13T01:27:05;101532.47;;;16.46;89.58
74594;BME280;63097;51.872;4.460;2023-07-13T01:29:32;101525.75;;;16.52;86.95
74594;BME280;63097;51.872;4.460;2023-07-13T01:31:58;101525.66;;;16.37;88.11
74594;BME280;63097;51.872;4.460;2023-07-13T01:34:24;101535.50;;;16.35;87.52
74594;BME280;63097;51.872;4.460;2023-07-13T01:36:49;101535.44;;;16.25;87.65
74594;BME280;63097;51.872;4.460;2023-07-13T01:39:14;101540.75;;;16.16;88.21
74594;BME280;63097;51.872;4.460;2023-07-13T01:41:40;101539.28;;;16.08;88.12
74594;BME280;63097;51.872;4.460;2023-07-13T01:44:05;101537.34;;;16.09;87.66
74594;BME280;63097;51.872;4.460;2023-07-13T01:46:30;101543.44;;;16.01;88.15
74594;BME280;63097;51.872;4.460;2023-07-13T01:48:56;101546.09;;;16.23;86.29
74594;BME280;63097;51.872;4.460;2023-07-13T01:51:21;101544.88;;;16.03;87.40
74594;BME280;63097;51.872;4.460;2023-07-13T01:53:46;101544.69;;;16.15;86.63
74594;BME280;63097;51.872;4.460;2023-07-13T01:56:12;101542.56;;;15.95;88.34
74594;BME280;63097;51.872;4.460;2023-07-13T01:58:37;101544.00;;;15.98;88.30
74594;BME280;63097;51.872;4.460;2023-07-13T02:01:02;101547.28;;;15.85;90.14
74594;BME280;63097;51.872;4.460;2023-07-13T02:03:28;101549.31;;;15.94;90.23
74594;BME280;63097;51.872;4.460;2023-07-13T02:05:53;101548.72;;;15.87;91.06
74594;BME280;63097;51.872;4.460;2023-07-13T02:08:18;101550.97;;;15.90;91.01
74594;BME280;63097;51.872;4.460;2023-07-13T02:10:44;101550.72;;;15.97;91.10
74594;BME280;63097;51.872;4.460;2023-07-13T02:13:09;101550.13;;;15.90;92.33
74594;BME280;63097;51.872;4.460;2023-07-13T02:15:38;101541.06;;;15.78;93.10
74594;BME280;63097;51.872;4.460;2023-07-13T02:18:03;101539.16;;;15.83;93.78
74594;BME280;63097;51.872;4.460;2023-07-13T02:20:29;101538.97;;;16.00;94.66
74594;BME280;63097;51.872;4.460;2023-07-13T02:22:54;101542.88;;;15.99;94.00
74594;BME280;63097;51.872;4.460;2023-07-13T02:25:19;101542.59;;;16.00;95.00
74594;BME280;63097;51.872;4.460;2023-07-13T02:27:45;101544.50;;;15.90;95.05
74594;BME280;63097;51.872;4.460;2023-07-13T02:30:11;101547.38;;;15.95;95.28
74594;BME280;63097;51.872;4.460;2023-07-13T02:32:36;101552.03;;;15.84;96.10
74594;BME280;63097;51.872;4.460;2023-07-13T02:35:01;101544.81;;;15.93;96.65
74594;BME280;63097;51.872;4.460;2023-07-13T02:37:27;101544.56;;;15.95;96.61
74594;BME280;63097;51.872;4.460;2023-07-13T02:39:52;101551.97;;;15.69;97.24
74594;BME280;63097;51.872;4.460;2023-07-13T02:42:17;101553.91;;;15.69;98.83
74594;BME280;63097;51.872;4.460;2023-07-13T02:44:43;101546.78;;;15.93;98.08
74594;BME280;63097;51.872;4.460;2023-07-13T02:47:08;101548.72;;;15.87;98.39
74594;BME280;63097;51.872;4.460;2023-07-13T02:49:33;101554.84;;;15.84;98.39
74594;BME280;63097;51.872;4.460;2023-07-13T02:51:59;101546.91;;;15.71;98.95
74594;BME280;63097;51.872;4.460;2023-07-13T02:54:24;101566.00;;;15.69;99.83
74594;BME280;63097;51.872;4.460;2023-07-13T02:56:49;101553.31;;;15.62;100.00
74594;BME280;63097;51.872;4.460;2023-07-13T02:59:15;101560.63;;;15.68;100.00
74594;BME280;63097;51.872;4.460;2023-07-13T03:01:40;101559.81;;;15.72;100.00
74594;BME280;63097;51.872;4.460;2023-07-13T03:04:05;101564.88;;;15.75;100.00
74594;BME280;63097;51.872;4.460;2023-07-13T03:06:32;101565.78;;;15.81;100.00
74594;BME280;63097;51.872;4.460;2023-07-13T03:08:57;101560.31;;;15.64;100.00
74594;BME280;63097;51.872;4.460;2023-07-13T03:11:23;101560.31;;;15.64;100.00
74594;BME280;63097;51.872;4.460;2023-07-13T03:13:48;101563.78;;;15.76;100.00
74594;BME280;63097;51.872;4.460;2023-07-13T03:16:14;101563.78;;;15.76;100.00
74594;BME280;63097;51.872;4.460;2023-07-13T03:18:40;101557.06;;;15.82;100.00
74594;BME280;63097;51.872;4.460;2023-07-13T03:21:06;101554.53;;;15.76;100.00
74594;BME280;63097;51.872;4.460;2023-07-13T03:23:31;101553.66;;;15.75;100.00
74594;BME280;63097;51.872;4.460;2023-07-13T03:26:04;101566.28;;;15.73;100.00
74594;BME280;63097;51.872;4.460;2023-07-13T03:28:29;101559.22;;;15.65;100.00
74594;BME280;63097;51.872;4.460;2023-07-13T03:31:03;101556.84;;;15.84;100.00
74594;BME280;63097;51.872;4.460;2023-07-13T03:33:28;101558.69;;;15.73;100.00
74594;BME280;63097;51.872;4.460;2023-07-13T03:35:54;101569.59;;;15.65;100.00
74594;BME280;63097;51.872;4.460;2023-07-13T03:38:19;101560.41;;;15.74;100.00
74594;BME280;63097;51.872;4.460;2023-07-13T03:40:44;101571.94;;;15.78;100.00
74594;BME280;63097;51.872;4.460;2023-07-13T03:43:10;101561.50;;;15.73;100.00
74594;BME280;63097;51.872;4.460;2023-07-13T03:45:37;101570.22;;;15.77;100.00
74594;BME280;63097;51.872;4.460;2023-07-13T03:48:03;101573.66;;;15.84;100.00
74594;BME280;63097;51.872;4.460;2023-07-13T03:50:28;101575.84;;;15.77;100.00
74594;BME280;63097;51.872;4.460;2023-07-13T03:52:54;101576.66;;;15.72;100.00
74594;BME280;63097;51.872;4.460;2023-07-13T03:55:19;101580.56;;;15.71;100.00
74594;BME280;63097;51.872;4.460;2023-07-13T03:57:44;101585.28;;;15.66;100.00
74594;BME280;63097;51.872;4.460;2023-07-13T04:00:10;101582.28;;;15.72;100.00
74594;BME280;63097;51.872;4.460;2023-07-13T04:02:35;101583.66;;;15.75;100.00
74594;BME280;63097;51.872;4.460;2023-07-13T04:05:01;101587.16;;;15.87;100.00
74594;BME280;63097;51.872;4.460;2023-07-13T04:07:26;101595.59;;;15.92;100.00
74594;BME280;63097;51.872;4.460;2023-07-13T04:09:52;101596.16;;;15.94;100.00
74594;BME280;63097;51.872;4.460;2023-07-13T04:12:17;101593.66;;;15.97;100.00
74594;BME280;63097;51.872;4.460;2023-07-13T04:14:42;101586.59;;;15.90;100.00
74594;BME280;63097;51.872;4.460;2023-07-13T04:17:07;101595.53;;;15.82;100.00
74594;BME280;63097;51.872;4.460;2023-07-13T04:19:33;101595.78;;;15.80;100.00
74594;BME280;63097;51.872;4.460;2023-07-13T04:21:58;101601.44;;;15.85;100.00
74594;BME280;63097;51.872;4.460;2023-07-13T04:24:23;101604.56;;;15.89;100.00
74594;BME280;63097;51.872;4.460;2023-07-13T04:26:49;101601.78;;;15.94;100.00
74594;BME280;63097;51.872;4.460;2023-07-13T04:29:14;101599.00;;;15.99;100.00
74594;BME280;63097;51.872;4.460;2023-07-13T04:31:39;101601.28;;;16.02;100.00
74594;BME280;63097;51.872;4.460;2023-07-13T04:34:05;101612.59;;;16.17;100.00
74594;BME280;63097;51.872;4.460;2023-07-13T04:36:30;101602.78;;;16.20;100.00
74594;BME280;63097;51.872;4.460;2023-07-13T04:38:55;101607.09;;;16.37;100.00
74594;BME280;63097;51.872;4.460;2023-07-13T04:41:21;101606.56;;;16.40;100.00
74594;BME280;63097;51.872;4.460;2023-07-13T04:43:47;101613.97;;;16.51;100.00
74594;BME280;63097;51.872;4.460;2023-07-13T04:46:15;101603.81;;;16.50;100.00
74594;BME280;63097;51.872;4.460;2023-07-13T04:48:41;101604.47;;;16.67;99.11
74594;BME280;63097;51.872;4.460;2023-07-13T04:51:06;101616.00;;;16.66;99.04
74594;BME280;63097;51.872;4.460;2023-07-13T04:53:32;101617.97;;;16.70;99.54
74594;BME280;63097;51.872;4.460;2023-07-13T04:55:57;101628.97;;;16.82;98.89
74594;BME280;63097;51.872;4.460;2023-07-13T04:58:23;101632.06;;;16.80;99.13
74594;BME280;63097;51.872;4.460;2023-07-13T05:00:49;101621.91;;;16.74;99.20
74594;BME280;63097;51.872;4.460;2023-07-13T05:03:15;101622.50;;;16.81;98.77
74594;BME280;63097;51.872;4.460;2023-07-13T05:05:40;101623.34;;;16.82;98.88
74594;BME280;63097;51.872;4.460;2023-07-13T05:08:05;101614.09;;;16.86;99.12
74594;BME280;63097;51.872;4.460;2023-07-13T05:10:31;101622.00;;;16.99;98.17
74594;BME280;63097;51.872;4.460;2023-07-13T05:12:56;101621.16;;;16.99;97.65
74594;BME280;63097;51.872;4.460;2023-07-13T05:15:22;101631.03;;;17.12;97.14
74594;BME280;63097;51.872;4.460;2023-07-13T05:17:48;101624.56;;;17.06;97.33
74594;BME280;63097;51.872;4.460;2023-07-13T05:20:14;101632.75;;;17.18;97.10
74594;BME280;63097;51.872;4.460;2023-07-13T05:22:39;101636.69;;;17.22;96.76
74594;BME280;63097;51.872;4.460;2023-07-13T05:25:06;101623.47;;;17.22;97.32
74594;BME280;63097;51.872;4.460;2023-07-13T05:27:32;101629.94;;;17.33;96.27
74594;BME280;63097;51.872;4.460;2023-07-13T05:29:57;101637.00;;;17.45;96.05
74594;BME280;63097;51.872;4.460;2023-07-13T05:32:22;101635.91;;;17.56;93.83
74594;BME280;63097;51.872;4.460;2023-07-13T05:34:47;101651.13;;;17.75;93.95
74594;BME280;63097;51.872;4.460;2023-07-13T05:37:13;101645.78;;;17.94;92.99
74594;BME280;63097;51.872;4.460;2023-07-13T05:39:38;101657.06;;;17.89;92.18
74594;BME280;63097;51.872;4.460;2023-07-13T05:42:04;101655.06;;;17.84;92.31
74594;BME280;63097;51.872;4.460;2023-07-13T05:44:29;101656.78;;;17.70;96.06
74594;BME280;63097;51.872;4.460;2023-07-13T05:46:54;101665.13;;;17.40;96.73
74594;BME280;63097;51.872;4.460;2023-07-13T05:49:21;101667.88;;;17.20;99.32
74594;BME280;63097;51.872;4.460;2023-07-13T05:51:46;101658.03;;;17.13;100.00
74594;BME280;63097;51.872;4.460;2023-07-13T05:54:11;101669.25;;;17.02;100.00
74594;BME280;63097;51.872;4.460;2023-07-13T05:56:37;101665.00;;;16.95;100.00
74594;BME280;63097;51.872;4.460;2023-07-13T05:59:02;101668.91;;;16.94;100.00
74594;BME280;63097;51.872;4.460;2023-07-13T06:01:29;101677.88;;;16.81;100.00
74594;BME280;63097;51.872;4.460;2023-07-13T06:03:55;101668.28;;;16.72;100.00
74594;BME280;63097;51.872;4.460;2023-07-13T06:06:20;101676.44;;;16.73;100.00
74594;BME280;63097;51.872;4.460;2023-07-13T06:08:45;101671.31;;;16.65;100.00
74594;BME280;63097;51.872;4.460;2023-07-13T06:11:16;101677.78;;;16.66;100.00
74594;BME280;63097;51.872;4.460;2023-07-13T06:13:42;101675.25;;;16.64;100.00
74594;BME280;63097;51.872;4.460;2023-07-13T06:16:08;101674.16;;;16.70;100.00
74594;BME280;63097;51.872;4.460;2023-07-13T06:18:35;101670.75;;;16.63;100.00
74594;BME280;63097;51.872;4.460;2023-07-13T06:21:09;101684.50;;;16.65;100.00
74594;BME280;63097;51.872;4.460;2023-07-13T06:23:34;101683.16;;;16.72;100.00
74594;BME280;63097;51.872;4.460;2023-07-13T06:26:00;101686.03;;;16.82;100.00
74594;BME280;63097;51.872;4.460;2023-07-13T06:28:25;101687.22;;;16.96;100.00
74594;BME280;63097;51.872;4.460;2023-07-13T06:30:51;101685.56;;;17.10;98.70
74594;BME280;63097;51.872;4.460;2023-07-13T06:33:16;101689.88;;;17.38;97.92
74594;BME280;63097;51.872;4.460;2023-07-13T06:35:42;101679.00;;;17.72;96.26
74594;BME280;63097;51.872;4.460;2023-07-13T06:38:07;101676.75;;;17.94;94.82
74594;BME280;63097;51.872;4.460;2023-07-13T06:40:32;101681.81;;;18.27;92.47
74594;BME280;63097;51.872;4.460;2023-07-13T06:42:58;101680.38;;;18.50;90.86
74594;BME280;63097;51.872;4.460;2023-07-13T06:45:23;101674.31;;;18.96;87.62
74594;BME280;63097;51.872;4.460;2023-07-13T06:47:48;101687.19;;;19.23;86.01
74594;BME280;63097;51.872;4.460;2023-07-13T06:50:14;101696.50;;;19.18;84.44
74594;BME280;63097;51.872;4.460;2023-07-13T06:52:39;101690.91;;;19.03;86.21
74594;BME280;63097;51.872;4.460;2023-07-13T06:55:05;101696.13;;;18.61;87.22
74594;BME280;63097;51.872;4.460;2023-07-13T06:57:30;101692.53;;;18.00;90.62
74594;BME280;63097;51.872;4.460;2023-07-13T06:59:55;101691.00;;;17.42;94.85
74594;BME280;63097;51.872;4.460;2023-07-13T07:02:21;101709.25;;;17.30;98.14
74594;BME280;63097;51.872;4.460;2023-07-13T07:04:46;101719.34;;;17.21;99.47
74594;BME280;63097;51.872;4.460;2023-07-13T07:07:12;101720.72;;;17.13;98.86
74594;BME280;63097;51.872;4.460;2023-07-13T07:09:37;101724.34;;;17.08;97.59
74594;BME280;63097;51.872;4.460;2023-07-13T07:12:03;101734.97;;;16.91;98.75
74594;BME280;63097;51.872;4.460;2023-07-13T07:14:28;101755.03;;;16.68;100.00
74594;BME280;63097;51.872;4.460;2023-07-13T07:16:54;101766.44;;;15.88;100.00
74594;BME280;63097;51.872;4.460;2023-07-13T07:19:19;101744.81;;;15.57;100.00
74594;BME280;63097;51.872;4.460;2023-07-13T07:21:45;101747.72;;;15.67;100.00
74594;BME280;63097;51.872;4.460;2023-07-13T07:24:10;101748.13;;;15.81;100.00
74594;BME280;63097;51.872;4.460;2023-07-13T07:26:35;101744.81;;;15.84;100.00
74594;BME280;63097;51.872;4.460;2023-07-13T07:29:00;101753.31;;;15.94;100.00
74594;BME280;63097;51.872;4.460;2023-07-13T07:31:26;101762.59;;;15.94;100.00
74594;BME280;63097;51.872;4.460;2023-07-13T07:33:51;101758.66;;;15.95;100.00
74594;BME280;63097;51.872;4.460;2023-07-13T07:36:17;101759.28;;;16.02;100.00
74594;BME280;63097;51.872;4.460;2023-07-13T07:38:43;101763.56;;;16.10;100.00
74594;BME280;63097;51.872;4.460;2023-07-13T07:41:09;101762.81;;;16.20;100.00
74594;BME280;63097;51.872;4.460;2023-07-13T07:43:34;101752.75;;;16.24;100.00
74594;BME280;63097;51.872;4.460;2023-07-13T07:45:59;101756.56;;;16.44;100.00
74594;BME280;63097;51.872;4.460;2023-07-13T07:48:25;101765.03;;;16.91;100.00
74594;BME280;63097;51.872;4.460;2023-07-13T07:50:50;101767.25;;;17.46;100.00
74594;BME280;63097;51.872;4.460;2023-07-13T07:53:16;101762.63;;;18.17;100.00
74594;BME280;63097;51.872;4.460;2023-07-13T07:55:41;101767.97;;;18.08;100.00
74594;BME280;63097;51.872;4.460;2023-07-13T07:58:07;101771.91;;;17.87;98.26
74594;BME280;63097;51.872;4.460;2023-07-13T08:00:33;101775.78;;;17.56;97.87
74594;BME280;63097;51.872;4.460;2023-07-13T08:02:58;101771.97;;;17.30;100.00
74594;BME280;63097;51.872;4.460;2023-07-13T08:05:24;101770.81;;;17.21;100.00
74594;BME280;63097;51.872;4.460;2023-07-13T08:07:50;101780.91;;;17.12;100.00
74594;BME280;63097;51.872;4.460;2023-07-13T08:10:15;101783.44;;;17.14;100.00
74594;BME280;63097;51.872;4.460;2023-07-13T08:12:41;101768.59;;;17.23;100.00
74594;BME280;63097;51.872;4.460;2023-07-13T08:15:10;101777.56;;;17.25;100.00
74594;BME280;63097;51.872;4.460;2023-07-13T08:17:36;101777.06;;;17.38;99.05
74594;BME280;63097;51.872;4.460;2023-07-13T08:20:01;101775.25;;;17.69;99.17
74594;BME280;63097;51.872;4.460;2023-07-13T08:22:27;101776.97;;;17.90;97.23
74594;BME280;63097;51.872;4.460;2023-07-13T08:24:53;101776.72;;;18.22;97.61
74594;BME280;63097;51.872;4.460;2023-07-13T08:27:18;101768.84;;;18.34;98.00
74594;BME280;63097;51.872;4.460;2023-07-13T08:29:43;101773.63;;;18.18;97.03
74594;BME280;63097;51.872;4.460;2023-07-13T08:32:09;101773.31;;;18.09;96.13
74594;BME280;63097;51.872;4.460;2023-07-13T08:34:35;101785.41;;;17.85;89.68
74594;BME280;63097;51.872;4.460;2023-07-13T08:37:00;101776.91;;;17.70;97.17
74594;BME280;63097;51.872;4.460;2023-07-13T08:39:25;101777.81;;;17.95;98.64
74594;BME280;63097;51.872;4.460;2023-07-13T08:41:55;101770.53;;;18.40;93.39
74594;BME280;63097;51.872;4.460;2023-07-13T08:44:37;101775.25;;;18.99;95.05
74594;BME280;63097;51.872;4.460;2023-07-13T08:47:06;101777.41;;;19.28;92.59
74594;BME280;63097;51.872;4.460;2023-07-13T08:49:33;101781.94;;;19.34;90.44
74594;BME280;63097;51.872;4.460;2023-07-13T08:52:46;101777.06;;;19.49;87.80
74594;BME280;63097;51.872;4.460;2023-07-13T08:57:41;101774.47;;;19.63;89.36
74594;BME280;63097;51.872;4.460;2023-07-13T09:00:11;101779.09;;;19.39;87.24
74594;BME280;63097;51.872;4.460;2023-07-13T09:02:45;101774.91;;;19.16;90.25
74594;BME280;63097;51.872;4.460;2023-07-13T09:05:18;101791.03;;;19.05;91.02
74594;BME280;63097;51.872;4.460;2023-07-13T09:08:12;101784.03;;;18.93;90.31
74594;BME280;63097;51.872;4.460;2023-07-13T09:10:46;101782.63;;;18.70;91.01
74594;BME280;63097;51.872;4.460;2023-07-13T09:13:21;101787.97;;;18.32;92.60
74594;BME280;63097;51.872;4.460;2023-07-13T09:15:48;101798.41;;;18.11;95.64
74594;BME280;63097;51.872;4.460;2023-07-13T09:18:37;101795.88;;;18.30;93.93
74594;BME280;63097;51.872;4.460;2023-07-13T09:21:09;101810.81;;;18.25;90.65
74594;BME280;63097;51.872;4.460;2023-07-13T09:23:37;101802.38;;;18.50;90.24
74594;BME280;63097;51.872;4.460;2023-07-13T09:26:20;101797.88;;;18.69;88.98
74594;BME280;63097;51.872;4.460;2023-07-13T09:28:57;101800.09;;;18.87;90.18
74594;BME280;63097;51.872;4.460;2023-07-13T09:33:52;101805.19;;;18.75;86.47
74594;BME280;63097;51.872;4.460;2023-07-13T09:36:27;101799.66;;;19.49;83.57
74594;BME280;63097;51.872;4.460;2023-07-13T09:41:29;101797.03;;;20.12;82.88
74594;BME280;63097;51.872;4.460;2023-07-13T09:44:14;101797.97;;;19.48;84.96
74594;BME280;63097;51.872;4.460;2023-07-13T09:46:45;101803.97;;;19.32;85.78
74594;BME280;63097;51.872;4.460;2023-07-13T09:49:11;101813.50;;;19.31;83.18
74594;BME280;63097;51.872;4.460;2023-07-13T09:51:38;101811.38;;;20.20;79.14
74594;BME280;63097;51.872;4.460;2023-07-13T09:54:05;101815.78;;;21.04;75.09
74594;BME280;63097;51.872;4.460;2023-07-13T09:56:31;101814.00;;;21.78;71.55
74594;BME280;63097;51.872;4.460;2023-07-13T09:58:57;101819.88;;;22.24;72.81
74594;BME280;63097;51.872;4.460;2023-07-13T10:01:35;101830.84;;;21.46;71.46
74594;BME280;63097;51.872;4.460;2023-07-13T10:04:22;101834.66;;;20.79;69.31
74594;BME280;63097;51.872;4.460;2023-07-13T10:07:05;101829.22;;;21.64;69.99
74594;BME280;63097;51.872;4.460;2023-07-13T10:09:30;101835.41;;;21.89;63.42
74594;BME280;63097;51.872;4.460;2023-07-13T10:11:56;101842.94;;;21.75;66.04
74594;BME280;63097;51.872;4.460;2023-07-13T10:14:22;101833.47;;;21.14;68.48
74594;BME280;63097;51.872;4.460;2023-07-13T10:16:49;101834.53;;;20.89;67.31
74594;BME280;63097;51.872;4.460;2023-07-13T10:19:18;101845.69;;;22.04;67.51
74594;BME280;63097;51.872;4.460;2023-07-13T10:21:56;101852.19;;;22.42;58.59
74594;BME280;63097;51.872;4.460;2023-07-13T10:24:24;101856.75;;;22.61;64.21
74594;BME280;63097;51.872;4.460;2023-07-13T10:27:15;101857.56;;;22.25;60.49
74594;BME280;63097;51.872;4.460;2023-07-13T10:30:20;101868.53;;;23.01;59.93
74594;BME280;63097;51.872;4.460;2023-07-13T10:32:47;101859.03;;;22.91;61.02
74594;BME280;63097;51.872;4.460;2023-07-13T10:35:14;101878.38;;;22.89;58.23
74594;BME280;63097;51.872;4.460;2023-07-13T10:42:47;101856.97;;;23.83;56.10
74594;BME280;63097;51.872;4.460;2023-07-13T10:45:20;101857.59;;;23.40;52.93
74594;BME280;63097;51.872;4.460;2023-07-13T10:47:47;101854.34;;;23.33;52.47
74594;BME280;63097;51.872;4.460;2023-07-13T10:50:24;101877.59;;;23.75;51.49
74594;BME280;63097;51.872;4.460;2023-07-13T10:52:52;101866.34;;;23.11;55.29
74594;BME280;63097;51.872;4.460;2023-07-13T10:55:38;101867.91;;;23.76;54.36
74594;BME280;63097;51.872;4.460;2023-07-13T11:01:17;101880.88;;;24.45;49.89
74594;BME280;63097;51.872;4.460;2023-07-13T11:04:00;101867.34;;;24.64;49.87
74594;BME280;63097;51.872;4.460;2023-07-13T11:08:56;101872.72;;;25.10;47.72
74594;BME280;63097;51.872;4.460;2023-07-13T11:19:24;101874.59;;;24.92;47.77
74594;BME280;63097;51.872;4.460;2023-07-13T11:22:12;101874.72;;;25.10;46.76
74594;BME280;63097;51.872;4.460;2023-07-13T11:27:35;101895.75;;;25.00;46.95
74594;BME280;63097;51.872;4.460;2023-07-13T11:32:44;101879.00;;;25.29;44.13
74594;BME280;63097;51.872;4.460;2023-07-13T11:35:15;101872.75;;;25.80;45.30
74594;BME280;63097;51.872;4.460;2023-07-13T11:37:45;101879.63;;;26.61;42.04
74594;BME280;63097;51.872;4.460;2023-07-13T11:40:14;101883.59;;;26.17;44.19
74594;BME280;63097;51.872;4.460;2023-07-13T11:42:40;101878.50;;;25.97;42.70
74594;BME280;63097;51.872;4.460;2023-07-13T11:45:19;101877.75;;;26.22;41.83
74594;BME280;63097;51.872;4.460;2023-07-13T11:47:45;101872.56;;;26.24;41.36
74594;BME280;63097;51.872;4.460;2023-07-13T11:50:22;101889.00;;;25.79;40.31
74594;BME280;63097;51.872;4.460;2023-07-13T11:52:49;101893.84;;;26.18;41.29
74594;BME280;63097;51.872;4.460;2023-07-13T11:55:18;101887.13;;;26.06;39.73
74594;BME280;63097;51.872;4.460;2023-07-13T11:57:47;101887.47;;;26.30;42.65
74594;BME280;63097;51.872;4.460;2023-07-13T12:00:17;101878.81;;;26.77;39.09
74594;BME280;63097;51.872;4.460;2023-07-13T12:02:46;101890.41;;;25.91;40.90
74594;BME280;63097;51.872;4.460;2023-07-13T12:05:14;101892.66;;;25.71;42.35
74594;BME280;63097;51.872;4.460;2023-07-13T12:07:41;101889.91;;;26.70;41.73
74594;BME280;63097;51.872;4.460;2023-07-13T12:10:27;101878.41;;;27.22;38.97
74594;BME280;63097;51.872;4.460;2023-07-13T12:13:02;101882.66;;;26.64;39.85
74594;BME280;63097;51.872;4.460;2023-07-13T12:15:34;101887.13;;;27.25;40.03
74594;BME280;63097;51.872;4.460;2023-07-13T12:18:02;101882.44;;;27.29;38.65
74594;BME280;63097;51.872;4.460;2023-07-13T12:20:33;101894.09;;;26.81;41.14
74594;BME280;63097;51.872;4.460;2023-07-13T12:23:00;101897.28;;;26.80;41.15
74594;BME280;63097;51.872;4.460;2023-07-13T12:25:26;101880.75;;;27.37;40.01
74594;BME280;63097;51.872;4.460;2023-07-13T12:27:52;101877.41;;;27.81;39.00
74594;BME280;63097;51.872;4.460;2023-07-13T12:30:30;101888.53;;;27.02;38.73
74594;BME280;63097;51.872;4.460;2023-07-13T12:33:01;101879.91;;;27.45;39.12
74594;BME280;63097;51.872;4.460;2023-07-13T12:35:30;101887.31;;;27.84;39.69
74594;BME280;63097;51.872;4.460;2023-07-13T12:37:57;101888.88;;;28.10;38.39
74594;BME280;63097;51.872;4.460;2023-07-13T12:40:28;101881.16;;;28.31;37.39
74594;BME280;63097;51.872;4.460;2023-07-13T12:42:56;101882.72;;;27.91;39.12
74594;BME280;63097;51.872;4.460;2023-07-13T12:45:26;101881.66;;;28.04;37.81
74594;BME280;63097;51.872;4.460;2023-07-13T12:47:58;101878.66;;;28.50;36.10
74594;BME280;63097;51.872;4.460;2023-07-13T12:50:29;101890.72;;;28.35;38.35
74594;BME280;63097;51.872;4.460;2023-07-13T12:53:04;101885.53;;;27.62;38.01
74594;BME280;63097;51.872;4.460;2023-07-13T12:55:30;101890.28;;;28.25;38.82
74594;BME280;63097;51.872;4.460;2023-07-13T12:57:57;101877.63;;;29.08;36.96
74594;BME280;63097;51.872;4.460;2023-07-13T13:00:36;101889.34;;;28.83;36.92
74594;BME280;63097;51.872;4.460;2023-07-13T13:03:16;101887.41;;;28.54;36.51
74594;BME280;63097;51.872;4.460;2023-07-13T13:05:44;101895.34;;;28.48;35.26
74594;BME280;63097;51.872;4.460;2023-07-13T13:08:11;101886.56;;;28.04;37.35
74594;BME280;63097;51.872;4.460;2023-07-13T13:10:36;101891.53;;;28.15;36.20
74594;BME280;63097;51.872;4.460;2023-07-13T13:13:02;101899.13;;;28.40;37.23
74594;BME280;63097;51.872;4.460;2023-07-13T13:15:27;101904.94;;;28.23;36.24
74594;BME280;63097;51.872;4.460;2023-07-13T13:17:52;101896.72;;;28.22;37.17
74594;BME280;63097;51.872;4.460;2023-07-13T13:20:19;101914.22;;;28.70;33.98
74594;BME280;63097;51.872;4.460;2023-07-13T13:22:45;101902.63;;;27.79;37.35
74594;BME280;63097;51.872;4.460;2023-07-13T13:25:11;101895.41;;;28.40;35.82